createdAt,value
2019-01-12T00:00:00.381Z,47.4
2019-01-12T00:00:50.171Z,47.4
2019-01-12T00:01:40.226Z,47.4
2019-01-12T00:02:29.708Z,47.4
2019-01-12T00:03:20.601Z,47.4
2019-01-12T00:04:10.381Z,47.4
2019-01-12T00:05:00.733Z,47.4
2019-01-12T00:05:51.056Z,47.3
2019-01-12T00:06:41.184Z,47.3
2019-01-12T00:07:30.668Z,47.3
2019-01-12T00:08:20.982Z,47.3
2019-01-12T00:09:12.348Z,47.3
2019-01-12T00:10:01.334Z,47.3
2019-01-12T00:10:51.115Z,47.3
2019-01-12T00:11:41.165Z,47.3
2019-01-12T00:12:30.951Z,47.3
2019-01-12T00:13:21.558Z,47.3
2019-01-12T00:14:11.620Z,47.3
2019-01-12T00:15:01.180Z,47.3
2019-01-12T00:15:51.463Z,47.3
2019-01-12T00:34:13.109Z,47.1
2019-01-12T00:35:03.410Z,47.1
2019-01-12T00:35:53.731Z,47.1
2019-01-12T00:36:43.501Z,47.1
2019-01-12T00:37:33.541Z,47
2019-01-12T00:38:23.886Z,47.1
2019-01-12T00:39:13.443Z,47.1
2019-01-12T00:40:03.743Z,47
2019-01-12T00:40:54.051Z,47
2019-01-12T00:41:43.543Z,47
2019-01-12T00:42:33.886Z,47
2019-01-12T00:43:23.986Z,47
2019-01-12T00:44:13.170Z,46.9
2019-01-12T00:45:04.068Z,46.9
2019-01-12T00:45:54.123Z,46.9
2019-01-12T00:46:44.171Z,46.9
2019-01-12T00:47:36.153Z,46.9
2019-01-12T00:48:23.503Z,46.9
2019-01-12T00:49:14.609Z,46.9
2019-01-12T00:50:04.116Z,46.9
2019-01-12T00:50:54.455Z,46.9
2019-01-12T00:51:44.275Z,46.9
2019-01-12T00:52:34.558Z,46.9
2019-01-12T00:53:24.370Z,46.9
2019-01-12T00:54:14.400Z,46.9
2019-01-12T00:55:04.468Z,46.9
2019-01-12T00:55:54.517Z,46.9
2019-01-12T00:56:44.575Z,46.8
2019-01-12T00:57:34.907Z,46.9
2019-01-12T00:58:24.680Z,46.8
2019-01-12T00:59:14.810Z,46.8
2019-01-12T01:00:05.362Z,46.8
2019-01-12T01:00:54.935Z,46.8
2019-01-12T01:01:44.981Z,46.8
2019-01-12T01:02:35.039Z,46.8
2019-01-12T01:03:24.807Z,46.8
2019-01-12T01:04:15.145Z,46.8
2019-01-12T01:05:04.707Z,46.8
2019-01-12T01:05:55.292Z,46.8
2019-01-12T01:06:45.038Z,46.8
2019-01-12T01:07:35.584Z,46.8
2019-01-12T01:08:25.082Z,46.8
2019-01-12T01:09:15.029Z,46.7
2019-01-12T01:10:05.578Z,46.7
2019-01-12T01:10:55.279Z,46.7
2019-01-12T01:11:45.325Z,46.7
2019-01-12T01:12:35.376Z,46.7
2019-01-12T01:13:25.436Z,46.7
2019-01-12T01:14:16.314Z,46.7
2019-01-12T01:15:06.471Z,46.7
2019-01-12T01:15:55.667Z,46.6
2019-01-12T01:16:45.736Z,46.6
2019-01-12T01:17:35.791Z,46.6
2019-01-12T01:18:25.833Z,46.7
2019-01-12T01:19:15.899Z,46.6
2019-01-12T01:20:06.443Z,46.6
2019-01-12T01:20:56.211Z,46.6
2019-01-12T01:21:45.722Z,46.6
2019-01-12T01:22:36.614Z,46.6
2019-01-12T01:23:26.386Z,46.6
2019-01-12T01:24:16.997Z,46.6
2019-01-12T01:25:06.891Z,46.6
2019-01-12T01:25:56.846Z,46.6
2019-01-12T01:26:47.158Z,46.6
2019-01-12T01:27:36.948Z,46.6
2019-01-12T01:28:26.718Z,46.5
2019-01-12T01:29:17.064Z,46.6
2019-01-12T01:30:07.126Z,46.5
2019-01-12T01:30:56.955Z,46.5
2019-01-12T01:31:46.950Z,46.5
2019-01-12T01:32:37.073Z,46.5
2019-01-12T01:33:32.038Z,46.5
2019-01-12T01:34:17.383Z,46.5
2019-01-12T01:35:06.948Z,46.5
2019-01-12T01:35:57.780Z,46.4
2019-01-12T01:36:47.573Z,46.4
2019-01-12T01:37:37.895Z,46.4
2019-01-12T01:38:27.667Z,46.4
2019-01-12T01:39:17.460Z,46.4
2019-01-12T01:40:07.230Z,46.4
2019-01-12T01:40:58.114Z,46.4
2019-01-12T01:41:47.421Z,46.4
2019-01-12T01:42:37.474Z,46.4
2019-01-12T01:43:27.547Z,46.4
2019-01-12T01:44:17.051Z,46.4
2019-01-12T01:45:07.986Z,46.4
2019-01-12T01:45:57.477Z,46.4
2019-01-12T01:46:47.962Z,46.4
2019-01-12T01:47:38.074Z,46.3
2019-01-12T01:48:28.639Z,46.4
2019-01-12T01:49:17.865Z,46.3
2019-01-12T01:50:08.742Z,46.3
2019-01-12T01:50:58.532Z,46.3
2019-01-12T01:51:48.312Z,46.3
2019-01-12T01:52:38.362Z,46.3
2019-01-12T01:53:27.866Z,46.3
2019-01-12T01:54:19.029Z,46.3
2019-01-12T01:55:08.254Z,46.3
2019-01-12T01:55:58.306Z,46.3
2019-01-12T01:56:48.411Z,46.3
2019-01-12T01:57:39.002Z,46.3
2019-01-12T01:58:28.763Z,46.3
2019-01-12T01:59:19.349Z,46.3
2019-01-12T02:00:09.161Z,46.3
2019-01-12T02:00:59.498Z,46.2
2019-01-12T02:01:48.768Z,46.2
2019-01-12T02:02:39.580Z,46.2
2019-01-12T02:03:29.648Z,46.2
2019-01-12T02:04:19.436Z,46.2
2019-01-12T02:05:09.213Z,46.2
2019-01-12T02:05:58.713Z,46.2
2019-01-12T02:06:49.600Z,46.2
2019-01-12T02:07:39.640Z,46.1
2019-01-12T02:08:29.786Z,46.1
2019-01-12T02:09:20.038Z,46.1
2019-01-12T02:10:10.131Z,46.1
2019-01-12T02:10:59.325Z,46.1
2019-01-12T02:11:50.233Z,46.1
2019-01-12T02:12:39.770Z,46.1
2019-01-12T02:13:29.230Z,46.1
2019-01-12T02:14:20.100Z,46.1
2019-01-12T02:15:09.628Z,46.1
2019-01-12T02:16:00.495Z,46.1
2019-01-12T02:16:50.013Z,46.1
2019-01-12T02:17:40.650Z,46.1
2019-01-12T02:18:30.687Z,46.1
2019-01-12T02:19:20.465Z,46.1
2019-01-12T02:20:10.311Z,46.1
2019-01-12T02:21:00.290Z,46
2019-01-12T02:21:50.630Z,46.1
2019-01-12T02:22:40.965Z,46
2019-01-12T02:23:30.724Z,46
2019-01-12T02:24:20.545Z,46
2019-01-12T02:25:10.867Z,46
2019-01-12T02:26:01.174Z,45.9
2019-01-12T02:26:50.132Z,45.9
2019-01-12T02:27:40.722Z,45.9
2019-01-12T02:28:31.359Z,45.9
2019-01-12T02:29:21.122Z,45.9
2019-01-12T02:30:10.947Z,45.9
2019-01-12T02:31:01.266Z,45.9
2019-01-12T02:31:51.073Z,45.9
2019-01-12T02:32:41.434Z,45.9
2019-01-12T02:33:31.697Z,45.9
2019-01-12T02:34:21.457Z,45.9
2019-01-12T02:35:11.562Z,45.9
2019-01-12T02:36:01.599Z,45.9
2019-01-12T02:36:52.038Z,45.9
2019-01-12T02:37:41.696Z,45.9
2019-01-12T02:38:31.751Z,45.9
2019-01-12T02:39:21.819Z,45.9
2019-01-12T02:40:11.451Z,45.9
2019-01-12T02:41:01.177Z,45.8
2019-01-12T02:41:51.731Z,45.8
2019-01-12T02:42:41.757Z,45.8
2019-01-12T02:43:31.283Z,45.8
2019-01-12T02:44:22.166Z,45.8
2019-01-12T02:45:11.951Z,45.8
2019-01-12T02:46:02.570Z,45.8
2019-01-12T02:46:51.778Z,45.8
2019-01-12T02:47:42.141Z,45.8
2019-01-12T02:48:32.440Z,45.8
2019-01-12T02:49:22.525Z,45.8
2019-01-12T02:50:12.853Z,45.8
2019-01-12T02:51:02.065Z,45.8
2019-01-12T02:51:52.408Z,45.8
2019-01-12T02:52:42.743Z,45.8
2019-01-12T02:53:32.787Z,45.8
2019-01-12T02:54:22.555Z,45.7
2019-01-12T02:55:13.084Z,45.8
2019-01-12T02:56:02.711Z,45.7
2019-01-12T02:56:53.295Z,45.7
2019-01-12T02:57:42.870Z,45.7
2019-01-12T02:58:33.403Z,45.7
2019-01-12T02:59:23.188Z,45.6
2019-01-12T03:00:13.544Z,45.7
2019-01-12T03:01:03.379Z,45.6
2019-01-12T03:01:53.622Z,45.6
2019-01-12T03:02:43.145Z,45.6
2019-01-12T03:03:32.924Z,45.6
2019-01-12T03:04:23.245Z,45.6
2019-01-12T03:05:13.612Z,45.6
2019-01-12T03:06:03.713Z,45.6
2019-01-12T03:06:53.697Z,45.6
2019-01-12T03:07:43.274Z,45.6
2019-01-12T03:08:34.098Z,45.6
2019-01-12T03:09:23.842Z,45.6
2019-01-12T03:10:13.979Z,45.6
2019-01-12T03:11:04.267Z,45.6
2019-01-12T03:11:54.304Z,45.6
2019-01-12T03:12:43.809Z,45.6
2019-01-12T03:13:34.443Z,45.6
2019-01-12T03:14:23.694Z,45.5
2019-01-12T03:15:13.734Z,45.6
2019-01-12T03:16:03.809Z,45.5
2019-01-12T03:16:54.391Z,45.5
2019-01-12T03:17:44.486Z,45.5
2019-01-12T03:18:34.754Z,45.5
2019-01-12T03:19:24.582Z,45.5
2019-01-12T03:20:14.334Z,45.4
2019-01-12T03:21:04.728Z,45.5
2019-01-12T03:21:55.016Z,45.4
2019-01-12T03:22:45.089Z,45.4
2019-01-12T03:23:34.881Z,45.4
2019-01-12T03:24:24.885Z,45.4
2019-01-12T03:25:23.333Z,45.4
2019-01-12T03:26:04.487Z,45.4
2019-01-12T03:26:55.070Z,45.4
2019-01-12T03:27:44.315Z,45.4
2019-01-12T03:28:35.503Z,45.4
2019-01-12T03:29:24.936Z,45.4
2019-01-12T03:30:15.377Z,45.4
2019-01-12T03:31:05.797Z,45.4
2019-01-12T03:31:55.599Z,45.4
2019-01-12T03:32:45.299Z,45.4
2019-01-12T03:33:35.899Z,45.4
2019-01-12T03:34:25.565Z,45.3
2019-01-12T03:35:15.634Z,45.3
2019-01-12T03:36:04.836Z,45.3
2019-01-12T03:36:55.156Z,45.3
2019-01-12T03:37:45.812Z,45.3
2019-01-12T03:38:35.013Z,45.3
2019-01-12T03:39:25.627Z,45.3
2019-01-12T03:40:16.267Z,45.3
2019-01-12T03:41:06.325Z,45.3
2019-01-12T03:41:55.259Z,45.3
2019-01-12T03:42:46.117Z,45.3
2019-01-12T03:43:36.472Z,45.3
2019-01-12T03:44:26.253Z,45.3
2019-01-12T03:45:16.586Z,45.3
2019-01-12T03:46:06.172Z,45.3
2019-01-12T03:46:56.663Z,45.2
2019-01-12T03:47:46.525Z,45.2
2019-01-12T03:48:36.262Z,45.2
2019-01-12T03:49:26.599Z,45.2
2019-01-12T03:50:16.640Z,45.2
2019-01-12T03:51:06.421Z,45.2
2019-01-12T03:51:56.724Z,45.2
2019-01-12T03:52:47.067Z,45.2
2019-01-12T03:53:36.866Z,45.1
2019-01-12T03:54:26.637Z,45.1
2019-01-12T03:55:16.749Z,45.1
2019-01-12T03:56:06.759Z,45.1
2019-01-12T03:56:56.799Z,45.1
2019-01-12T03:57:47.446Z,45.1
2019-01-12T03:58:36.974Z,45.1
2019-01-12T03:59:27.528Z,45.1
2019-01-12T04:00:17.343Z,45.1
2019-01-12T04:01:07.730Z,45.1
2019-01-12T04:01:57.486Z,45.1
2019-01-12T04:02:47.776Z,45.1
2019-01-12T04:03:37.299Z,45.1
2019-01-12T04:04:27.619Z,45.1
2019-01-12T04:05:17.663Z,45.1
2019-01-12T04:06:07.979Z,45.1
2019-01-12T04:06:57.487Z,45.1
2019-01-12T04:07:47.814Z,45
2019-01-12T04:08:37.881Z,45.1
2019-01-12T04:09:27.686Z,45
2019-01-12T04:10:18.288Z,45
2019-01-12T04:11:08.372Z,45
2019-01-12T04:11:57.837Z,45
2019-01-12T04:12:48.177Z,45
2019-01-12T04:13:38.230Z,45
2019-01-12T04:14:28.283Z,44.9
2019-01-12T04:15:18.640Z,44.9
2019-01-12T04:16:08.393Z,44.9
2019-01-12T04:16:58.445Z,44.9
2019-01-12T04:17:48.583Z,44.9
2019-01-12T04:18:38.252Z,44.9
2019-01-12T04:19:28.613Z,44.9
2019-01-12T04:20:18.437Z,44.9
2019-01-12T04:21:08.167Z,44.9
2019-01-12T04:21:58.776Z,44.9
2019-01-12T04:22:48.820Z,44.9
2019-01-12T04:23:38.941Z,44.9
2019-01-12T04:24:29.217Z,44.9
2019-01-12T04:25:37.129Z,44.9
2019-01-12T04:26:08.781Z,44.8
2019-01-12T04:26:59.139Z,44.9
2019-01-12T04:27:48.643Z,44.9
2019-01-12T04:28:38.791Z,44.8
2019-01-12T04:29:28.829Z,44.8
2019-01-12T04:30:19.152Z,44.8
2019-01-12T04:31:09.321Z,44.8
2019-01-12T04:31:58.986Z,44.8
2019-01-12T04:32:48.574Z,44.8
2019-01-12T04:33:39.079Z,44.8
2019-01-12T04:34:29.914Z,44.8
2019-01-12T04:35:19.958Z,44.8
2019-01-12T04:36:09.190Z,44.8
2019-01-12T04:36:59.226Z,44.8
2019-01-12T04:37:50.149Z,44.8
2019-01-12T04:38:39.136Z,44.8
2019-01-12T04:39:30.272Z,44.8
2019-01-12T04:40:20.091Z,44.8
2019-01-12T04:41:10.096Z,44.7
2019-01-12T04:42:00.409Z,44.7
2019-01-12T04:42:50.566Z,44.7
2019-01-12T04:43:39.957Z,44.7
2019-01-12T04:44:30.286Z,44.7
2019-01-12T04:45:20.626Z,44.7
2019-01-12T04:46:10.714Z,44.7
2019-01-12T05:03:24.164Z,44.5
2019-01-12T05:04:13.736Z,44.5
2019-01-12T05:05:05.715Z,44.5
2019-01-12T05:06:23.317Z,44.5
2019-01-12T05:07:05.320Z,44.5
2019-01-12T05:07:40.933Z,44.5
2019-01-12T05:08:31.670Z,44.5
2019-01-12T05:09:19.922Z,44.4
2019-01-12T05:10:10.931Z,44.4
2019-01-12T05:11:00.377Z,44.4
2019-01-12T05:12:22.619Z,44.4
2019-01-12T05:12:49.278Z,44.4
2019-01-12T05:13:39.727Z,44.4
2019-01-12T05:14:30.002Z,44.4
2019-01-12T05:15:19.393Z,44.4
2019-01-12T05:16:09.194Z,44.4
2019-01-12T05:17:00.202Z,44.4
2019-01-12T05:17:50.118Z,44.4
2019-01-12T05:18:39.351Z,44.4
2019-01-12T05:19:44.483Z,44.4
2019-01-12T05:20:25.619Z,44.4
2019-01-12T05:21:30.926Z,44.3
2019-01-12T05:22:05.604Z,44.4
2019-01-12T05:22:56.244Z,44.4
2019-01-12T05:24:00.643Z,44.3
2019-01-12T09:17:46.743Z,42.2
2019-01-12T09:18:36.803Z,42.2
2019-01-12T09:19:26.883Z,42.1
2019-01-12T09:20:17.250Z,42.1
2019-01-12T09:21:07.233Z,42.1
2019-01-12T09:21:57.063Z,42.1
2019-01-12T09:22:47.341Z,42.1
2019-01-12T09:23:37.425Z,42.1
2019-01-12T09:24:27.455Z,42.1
2019-01-12T09:25:17.542Z,42.1
2019-01-12T09:26:07.615Z,42.1
2019-01-12T09:26:57.067Z,42.1
2019-01-12T09:27:47.402Z,42.1
2019-01-12T09:28:37.470Z,42.1
2019-01-12T09:29:27.529Z,42
2019-01-12T09:30:16.492Z,42
2019-01-12T09:31:07.625Z,42
2019-01-12T09:31:57.407Z,42
2019-01-12T09:32:47.742Z,42
2019-01-12T09:33:37.573Z,42
2019-01-12T09:34:28.192Z,41.9
2019-01-12T09:35:18.192Z,41.9
2019-01-12T09:36:07.999Z,41.9
2019-01-12T09:36:57.755Z,41.9
2019-01-12T09:37:48.383Z,41.9
2019-01-12T09:38:37.584Z,41.9
2019-01-12T09:39:28.192Z,41.9
2019-01-12T09:40:18.544Z,41.9
2019-01-12T09:41:08.587Z,41.9
2019-01-12T09:41:58.656Z,41.9
2019-01-12T09:42:48.725Z,41.9
2019-01-12T09:43:38.207Z,41.9
2019-01-12T09:44:28.848Z,41.9
2019-01-12T09:45:18.885Z,41.9
2019-01-12T09:46:08.935Z,41.8
2019-01-12T09:46:58.990Z,41.8
2019-01-12T09:47:48.787Z,41.8
2019-01-12T09:48:38.605Z,41.8
2019-01-12T09:49:29.153Z,41.8
2019-01-12T09:50:19.005Z,41.8
2019-01-12T09:51:09.005Z,41.8
2019-01-12T09:51:59.345Z,41.8
2019-01-12T09:52:49.124Z,41.8
2019-01-12T09:53:39.449Z,41.8
2019-01-12T09:54:29.232Z,41.8
2019-01-12T09:55:19.302Z,41.8
2019-01-12T09:56:09.337Z,41.8
2019-01-12T09:56:59.690Z,41.8
2019-01-12T09:57:49.582Z,41.8
2019-01-12T09:58:39.506Z,41.8
2019-01-12T09:59:31.116Z,41.7
2019-01-12T10:00:19.361Z,41.7
2019-01-12T10:01:09.673Z,41.7
2019-01-12T10:02:00.159Z,41.7
2019-01-12T10:02:49.804Z,41.7
2019-01-12T10:03:39.932Z,41.7
2019-01-12T10:04:30.196Z,41.7
2019-01-12T10:05:19.980Z,41.7
2019-01-12T10:06:10.310Z,41.6
2019-01-12T10:07:00.140Z,41.6
2019-01-12T10:07:50.189Z,41.6
2019-01-12T10:08:39.921Z,41.6
2019-01-12T10:09:30.522Z,41.6
2019-01-12T10:10:22.076Z,41.6
2019-01-12T10:11:10.366Z,41.6
2019-01-12T10:12:00.709Z,41.6
2019-01-12T10:12:50.256Z,41.6
2019-01-12T10:13:40.251Z,41.6
2019-01-12T10:14:30.591Z,41.6
2019-01-12T10:15:20.659Z,41.6
2019-01-12T10:16:10.701Z,41.6
2019-01-12T10:17:01.028Z,41.6
2019-01-12T10:17:51.103Z,41.6
2019-01-12T10:18:40.308Z,41.6
2019-01-12T10:19:30.933Z,41.6
2019-01-12T10:20:20.996Z,41.5
2019-01-12T10:21:11.036Z,41.6
2019-01-12T10:22:00.865Z,41.5
2019-01-12T10:22:50.611Z,41.5
2019-01-12T10:23:40.413Z,41.5
2019-01-12T10:24:31.547Z,41.5
2019-01-12T10:25:21.615Z,41.5
2019-01-12T10:26:11.696Z,41.5
2019-01-12T10:27:02.853Z,41.4
2019-01-12T10:27:51.768Z,41.5
2019-01-12T10:28:41.560Z,41.5
2019-01-12T10:29:31.617Z,41.4
2019-01-12T10:30:21.389Z,41.4
2019-01-12T10:31:11.435Z,41.4
2019-01-12T10:32:01.770Z,41.4
2019-01-12T10:32:52.115Z,41.4
2019-01-12T10:33:42.224Z,41.4
2019-01-12T10:34:32.220Z,41.4
2019-01-12T10:35:22.292Z,41.4
2019-01-12T10:36:12.350Z,41.4
2019-01-12T10:37:02.139Z,41.4
2019-01-12T10:37:52.189Z,41.4
2019-01-12T10:38:42.220Z,41.4
2019-01-12T10:39:32.269Z,41.4
2019-01-12T10:40:22.145Z,41.4
2019-01-12T10:41:12.737Z,41.4
2019-01-12T10:42:02.173Z,41.4
2019-01-12T10:42:52.842Z,41.4
2019-01-12T10:43:42.578Z,41.4
2019-01-12T10:44:32.939Z,41.4
2019-01-12T10:45:22.960Z,41.3
2019-01-12T10:46:12.189Z,41.3
2019-01-12T10:47:02.799Z,41.3
2019-01-12T10:47:53.131Z,41.3
2019-01-12T10:48:42.909Z,41.3
2019-01-12T10:49:32.136Z,41.3
2019-01-12T10:50:22.770Z,41.3
2019-01-12T10:51:12.594Z,41.3
2019-01-12T10:52:02.866Z,41.3
2019-01-12T10:52:53.463Z,41.3
2019-01-12T10:55:09.486Z,41.3
2019-01-12T10:55:59.566Z,41.3
2019-01-12T10:56:49.711Z,41.3
2019-01-12T10:57:39.668Z,41.3
2019-01-12T10:58:29.721Z,41.3
2019-01-12T10:59:19.508Z,41.3
2019-01-12T11:00:08.781Z,41.2
2019-01-12T11:00:59.391Z,41.2
2019-01-12T11:01:49.935Z,41.2
2019-01-12T11:02:39.186Z,41.2
2019-01-12T11:03:30.102Z,41.2
2019-01-12T11:04:20.110Z,41.2
2019-01-12T11:05:09.903Z,41.2
2019-01-12T11:05:59.706Z,41.2
2019-01-12T11:06:50.013Z,41.2
2019-01-12T11:07:41.418Z,41.2
2019-01-12T11:08:29.849Z,41.2
2019-01-12T11:09:19.630Z,41.2
2019-01-12T11:10:10.260Z,41.1
2019-01-12T11:11:00.025Z,41.1
2019-01-12T11:11:50.355Z,41.1
2019-01-12T11:12:40.415Z,41.1
2019-01-12T11:13:30.742Z,41.1
2019-01-12T11:14:20.808Z,41.1
2019-01-12T11:15:11.940Z,41.1
2019-01-12T11:16:00.632Z,41.1
2019-01-12T11:16:50.708Z,41.1
2019-01-12T11:17:41.030Z,41.1
2019-01-12T11:18:30.842Z,41.1
2019-01-12T11:19:20.607Z,41.1
2019-01-12T11:20:10.654Z,41.1
2019-01-12T11:21:01.262Z,41.1
2019-01-12T11:21:51.307Z,41.1
2019-01-12T11:22:40.822Z,41.1
2019-01-12T11:23:31.139Z,41.1
2019-01-12T11:24:20.645Z,41.1
2019-01-12T11:25:11.544Z,41
2019-01-12T11:26:01.054Z,41
2019-01-12T11:26:51.666Z,41
2019-01-12T11:27:41.169Z,41
2019-01-12T11:28:31.226Z,41
2019-01-12T11:29:21.272Z,41
2019-01-12T11:30:11.921Z,41
2019-01-12T11:31:01.674Z,41
2019-01-12T11:31:51.238Z,41
2019-01-12T11:32:42.057Z,41
2019-01-12T11:33:31.081Z,40.9
2019-01-12T11:34:21.701Z,40.9
2019-01-12T11:35:11.466Z,40.9
2019-01-12T11:36:01.809Z,40.9
2019-01-12T11:36:51.354Z,40.9
2019-01-12T11:37:41.669Z,40.9
2019-01-12T11:38:31.451Z,40.9
2019-01-12T11:39:22.054Z,40.9
2019-01-12T11:40:11.811Z,40.9
2019-01-12T11:41:01.875Z,40.9
2019-01-12T11:41:52.132Z,40.9
2019-01-12T11:42:42.788Z,40.9
2019-01-12T11:43:32.268Z,40.9
2019-01-12T11:44:22.088Z,40.9
2019-01-12T11:45:12.641Z,40.9
2019-01-12T11:46:02.703Z,40.9
2019-01-12T11:46:53.030Z,40.9
2019-01-12T11:47:42.553Z,40.9
2019-01-12T11:48:32.593Z,40.9
2019-01-12T11:49:22.660Z,40.9
2019-01-12T11:50:12.983Z,40.9
2019-01-12T11:51:03.043Z,40.8
2019-01-12T11:51:52.528Z,40.9
2019-01-12T11:52:43.438Z,40.9
2019-01-12T11:53:32.726Z,40.8
2019-01-12T11:54:23.274Z,40.8
2019-01-12T11:55:13.350Z,40.8
2019-01-12T11:56:03.662Z,40.8
2019-01-12T11:56:52.971Z,40.8
2019-01-12T11:57:43.310Z,40.8
2019-01-12T11:58:34.497Z,40.8
2019-01-12T11:59:23.135Z,40.8
2019-01-12T12:00:13.192Z,40.8
2019-01-12T12:01:02.697Z,40.8
2019-01-12T12:01:53.021Z,40.8
2019-01-12T12:02:43.105Z,40.8
2019-01-12T12:03:33.236Z,40.8
2019-01-12T12:04:22.997Z,40.8
2019-01-12T12:05:13.072Z,40.8
2019-01-12T12:06:03.117Z,40.8
2019-01-12T12:06:53.179Z,40.8
2019-01-12T12:07:43.156Z,40.8
2019-01-12T12:08:33.982Z,40.7
2019-01-12T12:09:24.571Z,40.8
2019-01-12T12:10:14.361Z,40.7
2019-01-12T12:11:03.871Z,40.7
2019-01-12T12:11:54.764Z,40.7
2019-01-12T12:12:44.816Z,40.7
2019-01-12T12:13:34.859Z,40.7
2019-01-12T12:14:24.667Z,40.7
2019-01-12T12:15:14.439Z,40.7
2019-01-12T12:16:05.609Z,40.7
2019-01-12T12:16:54.551Z,40.7
2019-01-12T12:17:45.153Z,40.7
2019-01-12T12:18:35.211Z,40.6
2019-01-12T12:19:25.273Z,40.6
2019-01-12T12:20:15.350Z,40.6
2019-01-12T12:21:05.393Z,40.6
2019-01-12T12:21:55.195Z,40.6
2019-01-12T12:22:45.223Z,40.6
2019-01-12T12:23:34.728Z,40.6
2019-01-12T12:24:25.344Z,40.6
2019-01-12T12:25:15.416Z,40.6
2019-01-12T12:26:05.745Z,40.6
2019-01-12T12:26:55.626Z,40.6
2019-01-12T12:27:45.860Z,40.6
2019-01-12T12:28:35.118Z,40.6
2019-01-12T12:29:25.722Z,40.6
2019-01-12T12:30:15.755Z,40.6
2019-01-12T12:31:05.800Z,40.6
2019-01-12T12:31:55.914Z,40.6
2019-01-12T12:32:45.927Z,40.6
2019-01-12T12:33:34.875Z,40.6
2019-01-12T12:34:26.097Z,40.6
2019-01-12T12:35:16.384Z,40.6
2019-01-12T12:36:05.882Z,40.6
2019-01-12T12:36:55.959Z,40.5
2019-01-12T12:37:46.010Z,40.5
2019-01-12T12:38:36.047Z,40.5
2019-01-12T12:39:26.395Z,40.5
2019-01-12T12:40:15.967Z,40.5
2019-01-12T12:41:06.037Z,40.5
2019-01-12T12:41:56.429Z,40.5
2019-01-12T12:42:46.634Z,40.5
2019-01-12T12:43:36.982Z,40.5
2019-01-12T12:44:27.064Z,40.4
2019-01-12T12:45:16.861Z,40.4
2019-01-12T12:46:06.879Z,40.4
2019-01-12T12:46:56.977Z,40.4
2019-01-12T12:47:46.981Z,40.4
2019-01-12T12:48:37.304Z,40.4
2019-01-12T12:49:27.079Z,40.4
2019-01-12T12:50:17.141Z,40.4
2019-01-12T12:51:07.469Z,40.4
2019-01-12T12:51:57.271Z,40.4
2019-01-12T12:52:46.766Z,40.4
2019-01-12T12:53:38.529Z,40.4
2019-01-12T12:54:27.428Z,40.4
2019-01-12T12:55:16.687Z,40.4
2019-01-12T12:56:07.829Z,40.4
2019-01-12T12:56:57.061Z,40.4
2019-01-12T12:57:47.388Z,40.4
2019-01-12T12:58:37.464Z,40.4
2019-01-12T12:59:27.353Z,40.4
2019-01-12T13:00:17.368Z,40.3
2019-01-12T13:01:07.901Z,40.4
2019-01-12T13:01:58.226Z,40.3
2019-01-12T13:02:48.029Z,40.3
2019-01-12T13:03:38.078Z,40.3
2019-01-12T13:04:27.871Z,40.3
2019-01-12T13:05:17.923Z,40.3
2019-01-12T13:06:08.243Z,40.3
2019-01-12T13:06:57.797Z,40.3
2019-01-12T13:07:48.630Z,40.3
2019-01-12T13:08:38.703Z,40.3
2019-01-12T13:09:28.483Z,40.3
2019-01-12T13:10:18.535Z,40.3
2019-01-12T13:11:07.780Z,40.3
2019-01-12T13:11:58.925Z,40.3
2019-01-12T13:12:48.163Z,40.3
2019-01-12T13:13:38.770Z,40.3
2019-01-12T13:14:29.102Z,40.3
2019-01-12T13:15:18.625Z,40.3
2019-01-12T13:16:08.972Z,40.3
2019-01-12T13:16:59.310Z,40.3
2019-01-12T13:17:48.514Z,40.3
2019-01-12T13:18:38.827Z,40.3
2019-01-12T13:19:28.962Z,40.2
2019-01-12T13:20:18.674Z,40.2
2019-01-12T13:21:09.036Z,40.3
2019-01-12T13:21:59.630Z,40.2
2019-01-12T13:22:50.717Z,40.2
2019-01-12T13:23:39.492Z,40.2
2019-01-12T13:24:29.526Z,40.2
2019-01-12T13:25:19.377Z,40.2
2019-01-12T13:26:09.641Z,40.2
2019-01-12T13:27:00.000Z,40.2
2019-01-12T13:27:49.481Z,40.2
2019-01-12T13:28:39.252Z,40.2
2019-01-12T13:29:29.577Z,40.1
2019-01-12T13:30:19.922Z,40.1
2019-01-12T13:31:09.709Z,40.1
2019-01-12T13:32:00.059Z,40.1
2019-01-12T13:32:49.809Z,40.1
2019-01-12T13:33:39.911Z,40.1
2019-01-12T13:34:30.216Z,40.1
2019-01-12T13:35:20.571Z,40.1
2019-01-12T13:36:10.336Z,40.1
2019-01-12T13:37:00.368Z,40.1
2019-01-12T13:37:50.758Z,40.1
2019-01-12T13:38:40.507Z,40.1
2019-01-12T13:39:35.911Z,40.1
2019-01-12T13:40:21.613Z,40.1
2019-01-12T13:41:10.501Z,40.1
2019-01-12T13:41:59.978Z,40.1
2019-01-12T13:42:49.956Z,40.1
2019-01-12T13:43:40.826Z,40.1
2019-01-12T13:44:30.353Z,40.1
2019-01-12T13:45:21.230Z,40.1
2019-01-12T13:46:10.723Z,40.1
2019-01-12T13:47:01.053Z,40.1
2019-01-12T13:47:51.138Z,40
2019-01-12T13:48:40.973Z,40
2019-01-12T13:49:30.975Z,40
2019-01-12T13:50:19.990Z,40
2019-01-12T13:51:11.632Z,40
2019-01-12T13:52:01.415Z,40
2019-01-12T13:52:51.778Z,39.9
2019-01-12T13:53:40.487Z,40
2019-01-12T13:54:31.635Z,40
2019-01-12T13:55:21.712Z,40
2019-01-12T13:56:11.417Z,39.9
2019-01-12T13:57:01.749Z,39.9
2019-01-12T13:57:52.629Z,39.9
2019-01-12T13:58:42.143Z,39.9
2019-01-12T13:59:31.927Z,39.9
2019-01-12T14:00:21.724Z,39.9
2019-01-12T14:01:12.332Z,39.9
2019-01-12T14:02:02.394Z,39.9
2019-01-12T14:02:52.372Z,39.9
2019-01-12T14:03:41.938Z,39.9
2019-01-12T14:04:32.272Z,39.9
2019-01-12T14:05:22.669Z,39.9
2019-01-12T14:06:12.657Z,39.9
2019-01-12T14:07:03.972Z,39.9
2019-01-12T14:08:00.257Z,39.9
2019-01-12T14:08:42.247Z,39.9
2019-01-12T14:09:46.809Z,39.9
2019-01-12T14:10:22.404Z,39.9
2019-01-12T14:11:12.486Z,39.9
2019-01-12T14:12:02.599Z,39.8
2019-01-12T14:12:52.656Z,39.9
2019-01-12T14:13:43.449Z,39.9
2019-01-12T14:14:32.952Z,39.9
2019-01-12T14:15:22.475Z,39.9
2019-01-12T14:16:12.334Z,39.8
2019-01-12T14:17:03.176Z,39.8
2019-01-12T14:17:53.188Z,39.8
2019-01-12T14:18:42.766Z,39.8
2019-01-12T14:19:33.306Z,39.8
2019-01-12T14:20:23.376Z,39.8
2019-01-12T14:21:13.466Z,39.8
2019-01-12T14:22:03.197Z,39.8
2019-01-12T14:22:53.817Z,39.8
2019-01-12T14:23:43.585Z,39.8
2019-01-12T14:24:33.930Z,39.8
2019-01-12T14:25:23.438Z,39.8
2019-01-12T14:26:13.495Z,39.8
2019-01-12T14:27:03.541Z,39.8
2019-01-12T14:27:58.223Z,39.8
2019-01-12T14:28:43.428Z,39.8
2019-01-12T14:29:33.715Z,39.8
2019-01-12T14:30:24.312Z,39.8
2019-01-12T14:31:14.103Z,39.7
2019-01-12T14:32:04.184Z,39.7
2019-01-12T14:32:54.525Z,39.7
2019-01-12T14:33:44.310Z,39.7
2019-01-12T14:34:34.097Z,39.7
2019-01-12T14:35:23.845Z,39.7
2019-01-12T14:36:14.160Z,39.7
2019-01-12T14:37:04.242Z,39.7
2019-01-12T14:37:54.847Z,39.7
2019-01-12T14:38:44.669Z,39.7
2019-01-12T14:39:34.682Z,39.7
2019-01-12T14:40:25.010Z,39.6
2019-01-12T14:41:14.292Z,39.6
2019-01-12T14:42:04.582Z,39.6
2019-01-12T14:42:54.897Z,39.6
2019-01-12T14:43:44.957Z,39.6
2019-01-12T14:44:34.314Z,39.6
2019-01-12T14:45:24.796Z,39.6
2019-01-12T14:46:14.874Z,39.6
2019-01-12T14:47:05.319Z,39.6
2019-01-12T14:47:55.516Z,39.6
2019-01-12T14:48:45.059Z,39.6
2019-01-12T14:49:35.662Z,39.6
2019-01-12T14:50:24.867Z,39.6
2019-01-12T14:51:15.230Z,39.6
2019-01-12T14:52:04.728Z,39.6
2019-01-12T14:52:55.054Z,39.6
2019-01-12T14:53:45.391Z,39.6
2019-01-12T14:54:35.987Z,39.6
2019-01-12T14:55:26.071Z,39.6
2019-01-12T14:56:15.554Z,39.6
2019-01-12T14:57:06.169Z,39.6
2019-01-12T14:58:04.754Z,39.6
2019-01-12T14:58:46.160Z,39.5
2019-01-12T14:59:35.571Z,39.5
2019-01-12T15:00:26.076Z,39.5
2019-01-12T15:01:16.322Z,39.5
2019-01-12T15:02:05.323Z,39.5
2019-01-12T15:02:56.137Z,39.5
2019-01-12T15:03:46.554Z,39.5
2019-01-12T15:04:36.478Z,39.5
2019-01-12T15:05:26.903Z,39.5
2019-01-12T15:06:16.544Z,39.5
2019-01-12T15:07:06.466Z,39.4
2019-01-12T15:07:56.628Z,39.4
2019-01-12T15:08:46.413Z,39.4
2019-01-12T15:09:36.453Z,39.4
2019-01-12T15:10:25.753Z,39.4
2019-01-12T15:11:16.856Z,39.4
2019-01-12T15:12:07.171Z,39.4
2019-01-12T15:12:56.944Z,39.4
2019-01-12T15:13:47.015Z,39.4
2019-01-12T15:14:37.350Z,39.4
2019-01-12T15:15:26.842Z,39.4
2019-01-12T15:16:17.450Z,39.4
2019-01-12T15:17:21.610Z,39.4
2019-01-12T15:17:57.290Z,39.4
2019-01-12T15:18:47.615Z,39.4
2019-01-12T15:19:37.397Z,39.4
2019-01-12T15:20:27.469Z,39.4
2019-01-12T15:21:17.229Z,39.4
2019-01-12T15:22:07.861Z,39.4
2019-01-12T15:22:57.914Z,39.4
2019-01-12T15:23:47.971Z,39.4
2019-01-12T15:24:38.009Z,39.4
2019-01-12T15:25:28.078Z,39.3
2019-01-12T15:26:17.298Z,39.3
2019-01-12T15:27:07.910Z,39.3
2019-01-12T15:27:58.005Z,39.3
2019-01-12T15:28:48.033Z,39.3
2019-01-12T15:29:38.085Z,39.3
2019-01-12T15:30:28.138Z,39.3
2019-01-12T15:31:20.803Z,39.3
2019-01-12T15:32:08.523Z,39.3
2019-01-12T15:32:58.317Z,39.3
2019-01-12T15:33:47.580Z,39.3
2019-01-12T15:34:38.415Z,39.3
2019-01-12T15:35:28.485Z,39.3
2019-01-12T15:36:18.525Z,39.3
2019-01-12T15:37:08.583Z,39.3